Hlavní strana
METAR-TAF:

METAR-TAF

Letiště :

Williamsburg-Jamestown Airport

Williamsburg, Virginie, Spojené státy americké

zeměpisná šířka: 37-14-21N, zeměpisná délka: 076-42-57W, výška: 15 m

Aktuální stav počasí

Zpráva byla vytvořena před 16 minutami, v 10:15 UTC
Severozápadní vítr 10 kt s nárazy do 17 kt
Teplota 9°C
Vlhkost vzduchu 46%
Tlak 1004 hPa
Viditelnost: 16.1 km
Jasno

METAR: KJGG 101015Z AUTO 31010G17KT 10SM CLR 09/M02 A2966 RMK AO1

Čas: 06:31 (10:31 UTC)


TAF: chybějící

Stav a předpovědi počasí z více než 4 000 letišť (zprávy METAR a TAF).

Červené a žluté tečky na mapě představují dostupné meteorologické stanice.

Když kurzor umístíte na tečku, zobrazí se název stanice.

Pak kliknutím zobrazíte stav a předpověď počasí.

Chcete-li změnit mapu, kliknutím na zelené tlačítko se znaménkem +mapu přiblížíte, kliknutím na zelené tlačítko se znaménkem – mapu oddálíte a kliknutím na zelené šipky přejdete na sousední mapy.


METAR-TAF: